createdAt,value
2023-02-02T00:00:02.157Z,10.90
2023-02-02T00:03:43.907Z,10.90
2023-02-02T00:07:25.672Z,10.90
2023-02-02T00:11:08.450Z,10.90
2023-02-02T00:14:50.169Z,10.90
2023-02-02T00:18:31.859Z,10.90
2023-02-02T00:22:15.505Z,10.80
2023-02-02T00:25:57.221Z,10.80
2023-02-02T00:29:39.916Z,10.80
2023-02-02T00:33:21.601Z,10.90
2023-02-02T00:37:03.315Z,10.90
2023-02-02T00:40:46.295Z,10.80
2023-02-02T00:44:46.228Z,10.80
2023-02-02T00:48:27.960Z,10.80
2023-02-02T00:52:09.954Z,10.80
2023-02-02T00:55:51.685Z,10.80
2023-02-02T00:59:35.534Z,10.80
2023-02-02T01:03:17.805Z,10.80
2023-02-02T01:06:59.713Z,10.70
2023-02-02T01:10:41.563Z,10.70
2023-02-02T01:14:23.310Z,10.70
2023-02-02T01:18:05.048Z,10.70
2023-02-02T01:21:47.015Z,10.60
2023-02-02T01:25:30.458Z,10.50
2023-02-02T01:29:12.451Z,10.50
2023-02-02T01:32:54.129Z,10.50
2023-02-02T01:36:35.891Z,10.50
2023-02-02T01:40:17.872Z,10.50
2023-02-02T01:44:04.364Z,10.50
2023-02-02T01:47:54.941Z,10.50
2023-02-02T01:51:42.611Z,10.50
2023-02-02T01:55:25.771Z,10.50
2023-02-02T01:59:09.962Z,10.40
2023-02-02T02:02:53.374Z,10.40
2023-02-02T02:06:35.089Z,10.40
2023-02-02T02:10:18.157Z,10.40
2023-02-02T02:14:19.131Z,10.50
2023-02-02T02:18:23.752Z,10.40
2023-02-02T02:22:46.143Z,10.30
2023-02-02T02:26:36.934Z,10.30
2023-02-02T02:30:31.086Z,10.30
2023-02-02T02:34:46.141Z,10.30
2023-02-02T02:38:39.590Z,10.30
2023-02-02T02:42:24.240Z,10.30
2023-02-02T02:46:06.084Z,10.30
2023-02-02T02:49:48.408Z,10.30
2023-02-02T02:53:30.155Z,10.30
2023-02-02T02:57:14.850Z,10.30
2023-02-02T03:01:07.761Z,10.30
2023-02-02T03:05:07.285Z,10.30
2023-02-02T03:08:51.098Z,10.30
2023-02-02T03:12:34.036Z,10.30
2023-02-02T03:16:16.005Z,10.40
2023-02-02T03:20:18.799Z,10.30
2023-02-02T03:24:00.633Z,10.30
2023-02-02T03:27:42.376Z,10.30
2023-02-02T03:31:26.926Z,10.30
2023-02-02T03:35:09.365Z,10.40
2023-02-02T03:38:51.082Z,10.30
2023-02-02T03:42:33.004Z,10.30
2023-02-02T03:46:15.020Z,10.30
2023-02-02T03:49:56.822Z,10.30
2023-02-02T03:53:39.356Z,10.30
2023-02-02T03:57:21.046Z,10.20
2023-02-02T04:01:07.621Z,10.30
2023-02-02T04:04:49.459Z,10.30
2023-02-02T04:08:31.585Z,10.20
2023-02-02T04:12:14.451Z,10.20
2023-02-02T04:15:59.991Z,10.20
2023-02-02T04:19:42.979Z,10.20
2023-02-02T04:23:24.715Z,10.20
2023-02-02T04:27:06.417Z,10.20
2023-02-02T04:31:09.037Z,10.10
2023-02-02T04:34:50.806Z,10.00
2023-02-02T04:38:32.500Z,10.00
2023-02-02T04:42:14.352Z,10.00
2023-02-02T04:45:57.123Z,9.90
2023-02-02T04:49:39.061Z,9.80
2023-02-02T04:53:20.742Z,9.80
2023-02-02T04:57:02.512Z,9.70
2023-02-02T05:01:08.963Z,9.70
2023-02-02T05:04:50.760Z,9.70
2023-02-02T05:08:32.475Z,9.70
2023-02-02T05:12:14.240Z,9.80
2023-02-02T05:15:55.938Z,9.80
2023-02-02T05:19:38.783Z,9.80
2023-02-02T05:23:20.546Z,9.90
2023-02-02T05:27:02.209Z,9.90
2023-02-02T05:30:45.110Z,10.00
2023-02-02T05:34:26.882Z,10.00
2023-02-02T05:38:08.559Z,10.00
2023-02-02T05:41:50.493Z,10.00
2023-02-02T05:45:33.002Z,10.00
2023-02-02T05:49:15.410Z,10.00
2023-02-02T05:52:57.678Z,9.90
2023-02-02T05:56:39.383Z,9.90
2023-02-02T06:00:23.348Z,9.80
2023-02-02T06:04:05.070Z,9.80
2023-02-02T06:07:46.835Z,9.80
2023-02-02T06:11:29.884Z,9.80
2023-02-02T06:15:11.809Z,9.70
2023-02-02T06:18:53.971Z,9.80
2023-02-02T06:22:38.062Z,9.80
2023-02-02T06:26:20.028Z,9.80
2023-02-02T06:30:06.315Z,9.80
2023-02-02T06:33:58.171Z,9.80
2023-02-02T06:37:39.944Z,9.80
2023-02-02T06:41:24.105Z,9.80
2023-02-02T06:45:06.351Z,9.80
2023-02-02T06:48:48.493Z,9.80
2023-02-02T06:52:30.253Z,9.80
2023-02-02T06:56:12.998Z,9.80
2023-02-02T06:59:56.906Z,9.90
2023-02-02T07:03:38.881Z,9.90
2023-02-02T07:07:20.591Z,9.90
2023-02-02T07:11:43.132Z,9.90
2023-02-02T07:15:26.566Z,9.90
2023-02-02T07:19:08.491Z,10.00
2023-02-02T07:22:50.271Z,10.00
2023-02-02T07:26:32.090Z,10.10
2023-02-02T07:30:14.209Z,10.10
2023-02-02T07:33:55.960Z,10.10
2023-02-02T07:37:39.976Z,10.10
2023-02-02T07:41:23.529Z,10.10
2023-02-02T07:45:24.511Z,10.20
2023-02-02T07:49:07.843Z,10.20
2023-02-02T07:52:49.537Z,10.30
2023-02-02T07:56:31.336Z,10.30
2023-02-02T08:00:14.440Z,10.40
2023-02-02T08:03:57.140Z,10.40
2023-02-02T08:07:38.944Z,10.40
2023-02-02T08:11:22.520Z,10.50
2023-02-02T08:15:04.517Z,10.50
2023-02-02T08:18:46.274Z,10.50
2023-02-02T08:22:28.163Z,10.60
2023-02-02T08:26:15.161Z,10.60
2023-02-02T08:29:57.010Z,10.70
2023-02-02T08:33:39.767Z,10.80
2023-02-02T08:37:22.097Z,10.80
2023-02-02T08:41:11.219Z,11.00
2023-02-02T08:46:13.688Z,11.00
2023-02-02T08:48:54.651Z,11.10
2023-02-02T08:52:37.551Z,11.20
2023-02-02T08:56:20.568Z,11.30
2023-02-02T09:00:06.771Z,11.40
2023-02-02T09:03:48.575Z,11.50
2023-02-02T09:08:10.516Z,11.60
2023-02-02T09:11:52.492Z,11.70
2023-02-02T09:15:34.194Z,11.80
2023-02-02T09:19:16.164Z,11.90
2023-02-02T09:22:57.896Z,11.90
2023-02-02T09:26:40.416Z,11.90
2023-02-02T09:30:22.497Z,12.00
2023-02-02T09:34:05.681Z,12.00
2023-02-02T09:37:47.454Z,12.00
2023-02-02T09:41:38.280Z,12.10
2023-02-02T09:45:23.316Z,12.10
2023-02-02T09:49:13.390Z,12.20
2023-02-02T09:53:03.572Z,12.30
2023-02-02T09:56:45.854Z,12.40
2023-02-02T10:00:55.367Z,12.50
2023-02-02T10:04:38.567Z,12.50
2023-02-02T10:08:49.067Z,12.60
2023-02-02T10:12:35.888Z,12.70
2023-02-02T10:16:18.959Z,12.70
2023-02-02T10:20:04.156Z,12.80
2023-02-02T10:23:45.978Z,12.80
2023-02-02T10:27:40.845Z,12.90
2023-02-02T10:31:36.567Z,12.90
2023-02-02T10:35:33.717Z,13.00
2023-02-02T10:39:27.227Z,13.10
2023-02-02T10:43:36.524Z,13.10
2023-02-02T10:47:25.465Z,13.10
2023-02-02T10:51:12.754Z,13.20
2023-02-02T10:55:33.249Z,13.20
2023-02-02T10:59:24.958Z,13.20
2023-02-02T11:03:08.744Z,13.20
2023-02-02T11:06:50.431Z,13.20
2023-02-02T11:10:32.430Z,13.30
2023-02-02T11:14:15.505Z,13.30
2023-02-02T11:17:59.723Z,13.30
2023-02-02T11:21:41.628Z,13.30
2023-02-02T11:25:43.601Z,13.40
2023-02-02T11:29:33.025Z,13.30
2023-02-02T11:33:36.552Z,13.30
2023-02-02T11:37:21.924Z,13.30
2023-02-02T11:41:09.147Z,13.30
2023-02-02T11:44:52.976Z,13.30
2023-02-02T11:48:36.830Z,13.30
2023-02-02T11:52:20.469Z,13.30
2023-02-02T11:56:10.271Z,13.30
2023-02-02T12:00:07.899Z,13.40
2023-02-02T12:03:49.728Z,13.40
2023-02-02T12:07:32.587Z,13.40
2023-02-02T12:11:44.086Z,13.50
2023-02-02T12:15:50.804Z,13.50
2023-02-02T12:19:57.451Z,13.60
2023-02-02T12:23:53.465Z,13.60
2023-02-02T12:27:44.793Z,13.60
2023-02-02T12:31:26.707Z,13.60
2023-02-02T12:35:51.089Z,13.70
2023-02-02T12:40:02.082Z,13.80
2023-02-02T12:43:48.005Z,13.80
2023-02-02T12:47:42.609Z,13.80
2023-02-02T12:51:56.672Z,13.80
2023-02-02T12:55:44.757Z,13.80
2023-02-02T12:59:36.448Z,13.80
2023-02-02T13:03:34.745Z,13.80
2023-02-02T13:07:21.106Z,13.90
2023-02-02T13:11:29.076Z,13.90
2023-02-02T13:15:15.279Z,13.90
2023-02-02T13:19:04.039Z,13.90
2023-02-02T13:22:45.777Z,14.00
2023-02-02T13:26:35.368Z,14.00
2023-02-02T13:30:34.971Z,14.00
2023-02-02T13:34:54.832Z,14.00
2023-02-02T13:38:42.085Z,13.90
2023-02-02T13:42:48.958Z,13.90
2023-02-02T13:46:46.445Z,13.80
2023-02-02T13:50:30.433Z,13.80
2023-02-02T13:54:31.551Z,13.80
2023-02-02T13:58:31.208Z,13.80
2023-02-02T14:02:45.486Z,13.70
2023-02-02T14:06:27.532Z,13.70
2023-02-02T14:10:32.370Z,13.80
2023-02-02T14:14:33.505Z,13.80
2023-02-02T14:18:15.338Z,13.70
2023-02-02T14:22:03.582Z,13.70
2023-02-02T14:25:45.276Z,13.70
2023-02-02T14:29:32.540Z,13.70
2023-02-02T14:33:37.743Z,13.60
2023-02-02T14:37:28.393Z,13.60
2023-02-02T14:41:50.909Z,13.60
2023-02-02T14:49:17.061Z,13.50
2023-02-02T14:53:01.729Z,13.50
2023-02-02T14:56:45.693Z,13.50
2023-02-02T15:00:30.515Z,13.50
2023-02-02T15:04:24.867Z,13.50
2023-02-02T15:08:14.779Z,13.50
2023-02-02T15:12:01.490Z,13.50
2023-02-02T15:15:43.995Z,13.50
2023-02-02T15:19:40.581Z,13.50
2023-02-02T15:23:42.172Z,13.40
2023-02-02T15:27:25.124Z,13.40
2023-02-02T15:31:25.328Z,13.30
2023-02-02T15:35:07.885Z,13.20
2023-02-02T15:38:54.730Z,13.20
2023-02-02T15:42:55.609Z,13.20
2023-02-02T15:46:37.398Z,13.10
2023-02-02T15:50:19.556Z,13.10
2023-02-02T15:54:01.257Z,13.10
2023-02-02T15:57:45.232Z,13.10
2023-02-02T16:01:27.763Z,13.10
2023-02-02T16:05:31.233Z,13.10
2023-02-02T16:09:31.402Z,13.10
2023-02-02T16:13:27.215Z,13.10
2023-02-02T16:17:13.668Z,13.10
2023-02-02T16:20:55.924Z,13.00
2023-02-02T16:24:40.379Z,13.00
2023-02-02T16:28:22.296Z,13.00
2023-02-02T16:32:04.697Z,12.90
2023-02-02T16:35:46.456Z,13.00
2023-02-02T16:39:28.133Z,13.00
2023-02-02T16:43:20.316Z,13.00
2023-02-02T16:47:02.080Z,13.00
2023-02-02T16:50:44.948Z,13.10
2023-02-02T16:54:26.656Z,13.10
2023-02-02T16:58:15.345Z,13.00
2023-02-02T17:02:23.532Z,13.00
2023-02-02T17:06:05.470Z,13.00
2023-02-02T17:09:48.621Z,12.90
2023-02-02T17:13:30.292Z,12.90
2023-02-02T17:17:11.967Z,12.90
2023-02-02T17:21:03.608Z,12.90
2023-02-02T17:24:46.239Z,12.90
2023-02-02T17:28:29.584Z,12.90
2023-02-02T17:32:13.324Z,12.90
2023-02-02T17:35:56.448Z,12.80
2023-02-02T17:39:38.866Z,12.70
2023-02-02T17:43:20.753Z,12.70
2023-02-02T17:47:02.653Z,12.70
2023-02-02T17:50:45.134Z,12.70
2023-02-02T17:54:26.807Z,12.60
2023-02-02T17:58:10.513Z,12.60
2023-02-02T18:01:54.135Z,12.60
2023-02-02T18:05:37.372Z,12.70
2023-02-02T18:09:19.456Z,12.70
2023-02-02T18:13:01.158Z,12.70
2023-02-02T18:16:42.845Z,12.80
2023-02-02T18:20:25.003Z,12.80
2023-02-02T18:24:06.845Z,12.80
2023-02-02T18:27:51.374Z,12.90
2023-02-02T18:31:33.164Z,12.90
2023-02-02T18:35:14.924Z,12.90
2023-02-02T18:38:57.926Z,12.90
2023-02-02T18:42:40.445Z,12.90
2023-02-02T18:46:22.226Z,12.90
2023-02-02T18:50:04.430Z,12.90
2023-02-02T18:53:46.607Z,12.90
2023-02-02T18:57:30.209Z,12.80
2023-02-02T19:01:14.063Z,12.80
2023-02-02T19:05:14.119Z,12.70
2023-02-02T19:08:55.817Z,12.60
2023-02-02T19:13:07.585Z,12.50
2023-02-02T19:16:49.326Z,12.40
2023-02-02T19:20:36.159Z,12.30
2023-02-02T19:24:17.861Z,12.20
2023-02-02T19:28:08.192Z,12.20
2023-02-02T19:32:00.523Z,12.10
2023-02-02T19:35:45.493Z,12.10
2023-02-02T19:39:33.408Z,12.00
2023-02-02T19:43:20.707Z,12.00
2023-02-02T19:47:02.861Z,12.00
2023-02-02T19:50:47.252Z,11.90
2023-02-02T19:54:32.444Z,11.90
2023-02-02T19:58:18.902Z,11.80
2023-02-02T20:02:36.916Z,11.80
2023-02-02T20:06:24.196Z,11.80
2023-02-02T20:10:25.749Z,11.80
2023-02-02T20:14:19.609Z,11.80
2023-02-02T20:18:03.848Z,11.80
2023-02-02T20:21:46.760Z,11.80
2023-02-02T20:25:32.316Z,11.80
2023-02-02T20:29:14.207Z,11.80
2023-02-02T20:32:57.992Z,11.80
2023-02-02T20:36:40.775Z,11.80
2023-02-02T20:41:04.490Z,11.80
2023-02-02T20:44:46.309Z,11.80
2023-02-02T20:48:29.257Z,11.80
2023-02-02T20:52:15.254Z,11.80
2023-02-02T20:55:59.778Z,11.80
2023-02-02T20:59:43.750Z,11.80
2023-02-02T21:03:25.493Z,11.80
2023-02-02T21:07:07.199Z,11.80
2023-02-02T21:10:50.945Z,11.80
2023-02-02T21:14:32.560Z,11.70
2023-02-02T21:18:14.351Z,11.80
2023-02-02T21:21:56.874Z,11.70
2023-02-02T21:25:38.577Z,11.70
2023-02-02T21:29:20.468Z,11.60
2023-02-02T21:33:02.136Z,11.60
2023-02-02T21:36:47.283Z,11.60
2023-02-02T21:41:25.612Z,11.60
2023-02-02T21:45:48.764Z,11.50
2023-02-02T21:49:37.125Z,11.50
2023-02-02T21:53:20.857Z,11.50
2023-02-02T21:57:06.188Z,11.50
2023-02-02T22:01:24.187Z,11.50
2023-02-02T22:05:19.627Z,11.50
2023-02-02T22:09:13.754Z,11.50
2023-02-02T22:12:55.470Z,11.40
2023-02-02T22:16:38.099Z,11.40
2023-02-02T22:20:34.659Z,11.40
2023-02-02T22:24:16.392Z,11.40
2023-02-02T22:27:59.143Z,11.40
2023-02-02T22:31:41.315Z,11.40
2023-02-02T22:35:23.101Z,11.40
2023-02-02T22:39:05.468Z,11.40
2023-02-02T22:42:47.292Z,11.40
2023-02-02T22:46:29.054Z,11.40
2023-02-02T22:50:10.942Z,11.50
2023-02-02T22:53:52.647Z,11.50
2023-02-02T22:57:34.354Z,11.50
2023-02-02T23:01:35.220Z,11.60
2023-02-02T23:05:17.563Z,11.60
2023-02-02T23:08:59.339Z,11.60
2023-02-02T23:12:41.616Z,11.60
2023-02-02T23:16:23.373Z,11.60
2023-02-02T23:20:06.779Z,11.60
2023-02-02T23:23:48.527Z,11.60
2023-02-02T23:27:30.490Z,11.60
2023-02-02T23:31:12.515Z,11.60
2023-02-02T23:34:54.257Z,11.60
2023-02-02T23:38:36.019Z,11.70
2023-02-02T23:42:18.732Z,11.70
2023-02-02T23:46:00.430Z,11.60
2023-02-02T23:49:42.166Z,11.60
2023-02-02T23:53:24.943Z,11.60
2023-02-02T23:57:06.655Z,11.60
